sensor_id;sensor_type;location;lat;lon;timestamp;P1;durP1;ratioP1;P2;durP2;ratioP2
9789;SDS011;4934;50.852;8.098;2023-04-25T00:01:40;10.50;;;3.85;;
9789;SDS011;4934;50.852;8.098;2023-04-25T00:04:07;15.93;;;4.63;;
9789;SDS011;4934;50.852;8.098;2023-04-25T00:06:33;10.05;;;4.30;;
9789;SDS011;4934;50.852;8.098;2023-04-25T00:09:01;11.00;;;4.30;;
9789;SDS011;4934;50.852;8.098;2023-04-25T00:11:32;14.07;;;4.00;;
9789;SDS011;4934;50.852;8.098;2023-04-25T00:13:58;9.68;;;4.25;;
9789;SDS011;4934;50.852;8.098;2023-04-25T00:16:27;10.77;;;5.03;;
9789;SDS011;4934;50.852;8.098;2023-04-25T00:18:53;12.32;;;4.13;;
9789;SDS011;4934;50.852;8.098;2023-04-25T00:21:19;9.48;;;4.30;;
9789;SDS011;4934;50.852;8.098;2023-04-25T00:23:45;8.13;;;4.03;;
9789;SDS011;4934;50.852;8.098;2023-04-25T00:26:12;13.43;;;4.18;;
9789;SDS011;4934;50.852;8.098;2023-04-25T00:28:38;12.68;;;4.22;;
9789;SDS011;4934;50.852;8.098;2023-04-25T00:31:04;11.10;;;4.60;;
9789;SDS011;4934;50.852;8.098;2023-04-25T00:33:30;11.20;;;4.60;;
9789;SDS011;4934;50.852;8.098;2023-04-25T00:35:56;10.57;;;4.53;;
9789;SDS011;4934;50.852;8.098;2023-04-25T00:38:21;12.35;;;4.30;;
9789;SDS011;4934;50.852;8.098;2023-04-25T00:40:47;11.82;;;4.63;;
9789;SDS011;4934;50.852;8.098;2023-04-25T00:43:13;13.73;;;5.22;;
9789;SDS011;4934;50.852;8.098;2023-04-25T00:45:39;15.82;;;5.05;;
9789;SDS011;4934;50.852;8.098;2023-04-25T00:48:05;11.40;;;4.47;;
9789;SDS011;4934;50.852;8.098;2023-04-25T00:50:32;15.98;;;5.20;;
9789;SDS011;4934;50.852;8.098;2023-04-25T00:52:58;14.18;;;5.00;;
9789;SDS011;4934;50.852;8.098;2023-04-25T00:55:25;17.45;;;4.63;;
9789;SDS011;4934;50.852;8.098;2023-04-25T00:57:51;12.23;;;4.30;;
9789;SDS011;4934;50.852;8.098;2023-04-25T01:00:17;12.88;;;4.43;;
9789;SDS011;4934;50.852;8.098;2023-04-25T01:02:43;17.90;;;5.05;;
9789;SDS011;4934;50.852;8.098;2023-04-25T01:05:10;15.38;;;4.60;;
9789;SDS011;4934;50.852;8.098;2023-04-25T01:07:37;14.25;;;4.63;;
9789;SDS011;4934;50.852;8.098;2023-04-25T01:10:03;15.80;;;5.43;;
9789;SDS011;4934;50.852;8.098;2023-04-25T01:12:31;11.57;;;5.25;;
9789;SDS011;4934;50.852;8.098;2023-04-25T01:14:56;13.90;;;5.22;;
9789;SDS011;4934;50.852;8.098;2023-04-25T01:17:22;17.77;;;5.40;;
9789;SDS011;4934;50.852;8.098;2023-04-25T01:19:49;15.02;;;5.00;;
9789;SDS011;4934;50.852;8.098;2023-04-25T01:22:16;20.80;;;6.25;;
9789;SDS011;4934;50.852;8.098;2023-04-25T01:24:42;17.77;;;5.25;;
9789;SDS011;4934;50.852;8.098;2023-04-25T01:27:08;10.88;;;5.20;;
9789;SDS011;4934;50.852;8.098;2023-04-25T01:29:35;16.67;;;4.97;;
9789;SDS011;4934;50.852;8.098;2023-04-25T01:32:01;16.40;;;5.47;;
9789;SDS011;4934;50.852;8.098;2023-04-25T01:34:28;18.33;;;5.28;;
9789;SDS011;4934;50.852;8.098;2023-04-25T01:36:54;11.13;;;4.95;;
9789;SDS011;4934;50.852;8.098;2023-04-25T01:39:20;12.43;;;5.15;;
9789;SDS011;4934;50.852;8.098;2023-04-25T01:41:46;16.52;;;5.40;;
9789;SDS011;4934;50.852;8.098;2023-04-25T01:44:13;13.52;;;5.15;;
9789;SDS011;4934;50.852;8.098;2023-04-25T01:46:38;12.00;;;4.93;;
9789;SDS011;4934;50.852;8.098;2023-04-25T01:49:04;15.73;;;4.78;;
9789;SDS011;4934;50.852;8.098;2023-04-25T01:51:30;10.95;;;4.47;;
9789;SDS011;4934;50.852;8.098;2023-04-25T01:53:56;16.92;;;5.05;;
9789;SDS011;4934;50.852;8.098;2023-04-25T01:56:22;14.35;;;6.55;;
9789;SDS011;4934;50.852;8.098;2023-04-25T01:58:48;17.65;;;6.15;;
9789;SDS011;4934;50.852;8.098;2023-04-25T02:01:14;21.08;;;5.80;;
9789;SDS011;4934;50.852;8.098;2023-04-25T02:03:40;23.27;;;5.88;;
9789;SDS011;4934;50.852;8.098;2023-04-25T02:06:06;19.10;;;6.43;;
9789;SDS011;4934;50.852;8.098;2023-04-25T02:08:31;20.42;;;6.03;;
9789;SDS011;4934;50.852;8.098;2023-04-25T02:10:57;15.80;;;5.22;;
9789;SDS011;4934;50.852;8.098;2023-04-25T02:13:23;22.60;;;6.53;;
9789;SDS011;4934;50.852;8.098;2023-04-25T02:15:48;20.05;;;6.07;;
9789;SDS011;4934;50.852;8.098;2023-04-25T02:18:14;20.27;;;5.93;;
9789;SDS011;4934;50.852;8.098;2023-04-25T02:20:41;14.32;;;6.35;;
9789;SDS011;4934;50.852;8.098;2023-04-25T02:23:07;24.73;;;7.82;;
9789;SDS011;4934;50.852;8.098;2023-04-25T02:25:33;22.23;;;7.47;;
9789;SDS011;4934;50.852;8.098;2023-04-25T02:27:58;22.10;;;6.47;;
9789;SDS011;4934;50.852;8.098;2023-04-25T02:30:24;20.75;;;6.80;;
9789;SDS011;4934;50.852;8.098;2023-04-25T02:32:50;22.98;;;7.43;;
9789;SDS011;4934;50.852;8.098;2023-04-25T02:35:15;26.08;;;6.97;;
9789;SDS011;4934;50.852;8.098;2023-04-25T02:37:41;16.35;;;5.97;;
9789;SDS011;4934;50.852;8.098;2023-04-25T02:40:07;19.23;;;6.13;;
9789;SDS011;4934;50.852;8.098;2023-04-25T02:42:33;26.67;;;6.55;;
9789;SDS011;4934;50.852;8.098;2023-04-25T02:44:59;21.42;;;6.03;;
9789;SDS011;4934;50.852;8.098;2023-04-25T02:47:25;13.20;;;5.22;;
9789;SDS011;4934;50.852;8.098;2023-04-25T02:49:51;14.80;;;4.72;;
9789;SDS011;4934;50.852;8.098;2023-04-25T02:52:16;13.80;;;5.32;;
9789;SDS011;4934;50.852;8.098;2023-04-25T02:54:42;11.38;;;5.25;;
9789;SDS011;4934;50.852;8.098;2023-04-25T02:57:08;13.27;;;4.55;;
9789;SDS011;4934;50.852;8.098;2023-04-25T02:59:34;16.75;;;5.20;;
9789;SDS011;4934;50.852;8.098;2023-04-25T03:01:59;18.58;;;4.65;;
9789;SDS011;4934;50.852;8.098;2023-04-25T03:04:26;12.60;;;4.25;;
9789;SDS011;4934;50.852;8.098;2023-04-25T03:06:51;13.32;;;4.80;;
9789;SDS011;4934;50.852;8.098;2023-04-25T03:09:18;17.63;;;5.28;;
9789;SDS011;4934;50.852;8.098;2023-04-25T03:11:44;24.50;;;6.55;;
9789;SDS011;4934;50.852;8.098;2023-04-25T03:14:10;19.17;;;7.63;;
9789;SDS011;4934;50.852;8.098;2023-04-25T03:16:36;18.20;;;5.32;;
9789;SDS011;4934;50.852;8.098;2023-04-25T03:19:02;11.40;;;4.78;;
9789;SDS011;4934;50.852;8.098;2023-04-25T03:21:28;14.95;;;5.38;;
9789;SDS011;4934;50.852;8.098;2023-04-25T03:23:56;15.73;;;4.97;;
9789;SDS011;4934;50.852;8.098;2023-04-25T03:26:22;17.20;;;6.85;;
9789;SDS011;4934;50.852;8.098;2023-04-25T03:28:48;15.85;;;5.32;;
9789;SDS011;4934;50.852;8.098;2023-04-25T03:31:13;27.15;;;5.65;;
9789;SDS011;4934;50.852;8.098;2023-04-25T03:33:39;22.13;;;6.53;;
9789;SDS011;4934;50.852;8.098;2023-04-25T03:36:05;22.90;;;5.43;;
9789;SDS011;4934;50.852;8.098;2023-04-25T03:38:31;12.23;;;5.20;;
9789;SDS011;4934;50.852;8.098;2023-04-25T03:40:57;20.90;;;6.60;;
9789;SDS011;4934;50.852;8.098;2023-04-25T03:43:22;17.90;;;5.60;;
9789;SDS011;4934;50.852;8.098;2023-04-25T03:45:48;18.23;;;6.53;;
9789;SDS011;4934;50.852;8.098;2023-04-25T03:48:13;22.70;;;6.07;;
9789;SDS011;4934;50.852;8.098;2023-04-25T03:50:39;15.57;;;5.32;;
9789;SDS011;4934;50.852;8.098;2023-04-25T03:53:05;31.75;;;12.85;;
9789;SDS011;4934;50.852;8.098;2023-04-25T03:55:30;20.33;;;6.47;;
9789;SDS011;4934;50.852;8.098;2023-04-25T03:57:57;23.88;;;5.53;;
9789;SDS011;4934;50.852;8.098;2023-04-25T04:00:23;19.05;;;6.97;;
9789;SDS011;4934;50.852;8.098;2023-04-25T04:02:49;13.93;;;5.78;;
9789;SDS011;4934;50.852;8.098;2023-04-25T04:05:15;23.55;;;8.65;;
9789;SDS011;4934;50.852;8.098;2023-04-25T04:07:40;18.70;;;6.95;;
9789;SDS011;4934;50.852;8.098;2023-04-25T04:10:07;22.65;;;7.20;;
9789;SDS011;4934;50.852;8.098;2023-04-25T04:12:37;24.17;;;6.57;;
9789;SDS011;4934;50.852;8.098;2023-04-25T04:15:03;21.83;;;6.78;;
9789;SDS011;4934;50.852;8.098;2023-04-25T04:17:30;23.52;;;8.02;;
9789;SDS011;4934;50.852;8.098;2023-04-25T04:19:55;22.65;;;7.28;;
9789;SDS011;4934;50.852;8.098;2023-04-25T04:22:22;19.02;;;6.15;;
9789;SDS011;4934;50.852;8.098;2023-04-25T04:24:48;18.90;;;6.50;;
9789;SDS011;4934;50.852;8.098;2023-04-25T04:27:15;26.85;;;7.70;;
9789;SDS011;4934;50.852;8.098;2023-04-25T04:29:43;21.08;;;6.65;;
9789;SDS011;4934;50.852;8.098;2023-04-25T04:32:08;21.55;;;6.65;;
9789;SDS011;4934;50.852;8.098;2023-04-25T04:34:34;18.35;;;6.43;;
9789;SDS011;4934;50.852;8.098;2023-04-25T04:37:00;24.25;;;7.45;;
9789;SDS011;4934;50.852;8.098;2023-04-25T04:39:26;20.42;;;7.57;;
9789;SDS011;4934;50.852;8.098;2023-04-25T04:41:51;22.77;;;7.40;;
9789;SDS011;4934;50.852;8.098;2023-04-25T04:44:17;26.17;;;7.60;;
9789;SDS011;4934;50.852;8.098;2023-04-25T04:46:43;17.63;;;6.35;;
9789;SDS011;4934;50.852;8.098;2023-04-25T04:49:09;26.00;;;7.93;;
9789;SDS011;4934;50.852;8.098;2023-04-25T04:51:36;25.45;;;9.43;;
9789;SDS011;4934;50.852;8.098;2023-04-25T04:54:02;17.58;;;7.30;;
9789;SDS011;4934;50.852;8.098;2023-04-25T04:56:30;20.85;;;6.93;;
9789;SDS011;4934;50.852;8.098;2023-04-25T04:58:59;32.92;;;7.97;;
9789;SDS011;4934;50.852;8.098;2023-04-25T05:01:26;22.50;;;8.20;;
9789;SDS011;4934;50.852;8.098;2023-04-25T05:03:52;16.95;;;6.03;;
9789;SDS011;4934;50.852;8.098;2023-04-25T05:06:18;25.65;;;8.90;;
9789;SDS011;4934;50.852;8.098;2023-04-25T05:08:44;25.30;;;7.55;;
9789;SDS011;4934;50.852;8.098;2023-04-25T05:11:10;24.88;;;8.50;;
9789;SDS011;4934;50.852;8.098;2023-04-25T05:13:36;21.60;;;7.32;;
9789;SDS011;4934;50.852;8.098;2023-04-25T05:16:02;23.83;;;8.70;;
9789;SDS011;4934;50.852;8.098;2023-04-25T05:18:27;21.77;;;8.35;;
9789;SDS011;4934;50.852;8.098;2023-04-25T05:20:53;26.77;;;8.07;;
9789;SDS011;4934;50.852;8.098;2023-04-25T05:23:18;23.50;;;8.27;;
9789;SDS011;4934;50.852;8.098;2023-04-25T05:25:44;22.67;;;8.45;;
9789;SDS011;4934;50.852;8.098;2023-04-25T05:28:11;18.42;;;7.68;;
9789;SDS011;4934;50.852;8.098;2023-04-25T05:30:37;29.08;;;9.00;;
9789;SDS011;4934;50.852;8.098;2023-04-25T05:33:03;23.58;;;7.75;;
9789;SDS011;4934;50.852;8.098;2023-04-25T05:35:28;30.20;;;11.93;;
9789;SDS011;4934;50.852;8.098;2023-04-25T05:37:54;24.48;;;8.93;;
9789;SDS011;4934;50.852;8.098;2023-04-25T05:40:19;26.52;;;8.50;;
9789;SDS011;4934;50.852;8.098;2023-04-25T05:42:45;19.55;;;8.13;;
9789;SDS011;4934;50.852;8.098;2023-04-25T05:45:11;22.30;;;8.13;;
9789;SDS011;4934;50.852;8.098;2023-04-25T05:47:36;24.02;;;8.13;;
9789;SDS011;4934;50.852;8.098;2023-04-25T05:50:02;21.75;;;9.07;;
9789;SDS011;4934;50.852;8.098;2023-04-25T05:52:28;27.90;;;8.20;;
9789;SDS011;4934;50.852;8.098;2023-04-25T05:54:53;37.47;;;8.98;;
9789;SDS011;4934;50.852;8.098;2023-04-25T05:57:23;24.70;;;8.32;;
9789;SDS011;4934;50.852;8.098;2023-04-25T05:59:50;23.40;;;9.43;;
9789;SDS011;4934;50.852;8.098;2023-04-25T06:02:16;25.35;;;8.48;;
9789;SDS011;4934;50.852;8.098;2023-04-25T06:04:42;24.58;;;10.38;;
9789;SDS011;4934;50.852;8.098;2023-04-25T06:07:08;23.65;;;7.68;;
9789;SDS011;4934;50.852;8.098;2023-04-25T06:09:33;22.40;;;9.10;;
9789;SDS011;4934;50.852;8.098;2023-04-25T06:11:59;26.75;;;9.48;;
9789;SDS011;4934;50.852;8.098;2023-04-25T06:14:26;24.10;;;8.85;;
9789;SDS011;4934;50.852;8.098;2023-04-25T06:16:51;21.80;;;9.10;;
9789;SDS011;4934;50.852;8.098;2023-04-25T06:19:17;31.25;;;8.57;;
9789;SDS011;4934;50.852;8.098;2023-04-25T06:21:43;25.83;;;9.60;;
9789;SDS011;4934;50.852;8.098;2023-04-25T06:24:09;27.42;;;8.48;;
9789;SDS011;4934;50.852;8.098;2023-04-25T06:26:35;22.75;;;9.10;;
9789;SDS011;4934;50.852;8.098;2023-04-25T06:29:00;25.70;;;8.75;;
9789;SDS011;4934;50.852;8.098;2023-04-25T06:31:26;22.35;;;8.13;;
9789;SDS011;4934;50.852;8.098;2023-04-25T06:33:52;22.17;;;9.77;;
9789;SDS011;4934;50.852;8.098;2023-04-25T06:36:19;24.90;;;8.43;;
9789;SDS011;4934;50.852;8.098;2023-04-25T06:38:50;23.75;;;9.20;;
9789;SDS011;4934;50.852;8.098;2023-04-25T06:41:16;27.15;;;10.20;;
9789;SDS011;4934;50.852;8.098;2023-04-25T06:43:41;28.65;;;9.57;;
9789;SDS011;4934;50.852;8.098;2023-04-25T06:46:07;33.72;;;10.00;;
9789;SDS011;4934;50.852;8.098;2023-04-25T06:48:32;23.30;;;8.02;;
9789;SDS011;4934;50.852;8.098;2023-04-25T06:50:58;23.90;;;9.45;;
9789;SDS011;4934;50.852;8.098;2023-04-25T06:53:24;29.52;;;9.93;;
9789;SDS011;4934;50.852;8.098;2023-04-25T06:55:49;30.15;;;9.65;;
9789;SDS011;4934;50.852;8.098;2023-04-25T06:58:15;18.30;;;7.70;;
9789;SDS011;4934;50.852;8.098;2023-04-25T07:00:40;21.17;;;8.38;;
9789;SDS011;4934;50.852;8.098;2023-04-25T07:03:06;26.10;;;10.13;;
9789;SDS011;4934;50.852;8.098;2023-04-25T07:05:32;23.70;;;8.73;;
9789;SDS011;4934;50.852;8.098;2023-04-25T07:07:58;22.67;;;8.35;;
9789;SDS011;4934;50.852;8.098;2023-04-25T07:10:23;22.17;;;8.13;;
9789;SDS011;4934;50.852;8.098;2023-04-25T07:12:50;22.48;;;8.70;;
9789;SDS011;4934;50.852;8.098;2023-04-25T07:15:15;25.42;;;10.50;;
9789;SDS011;4934;50.852;8.098;2023-04-25T07:17:41;29.15;;;9.32;;
9789;SDS011;4934;50.852;8.098;2023-04-25T07:20:07;13.00;;;5.57;;
9789;SDS011;4934;50.852;8.098;2023-04-25T07:22:34;19.80;;;6.07;;
9789;SDS011;4934;50.852;8.098;2023-04-25T07:25:00;19.25;;;5.78;;
9789;SDS011;4934;50.852;8.098;2023-04-25T07:27:25;11.68;;;3.30;;
9789;SDS011;4934;50.852;8.098;2023-04-25T07:29:51;13.30;;;3.13;;
9789;SDS011;4934;50.852;8.098;2023-04-25T07:32:17;15.43;;;3.25;;
9789;SDS011;4934;50.852;8.098;2023-04-25T07:34:42;11.73;;;4.70;;
9789;SDS011;4934;50.852;8.098;2023-04-25T07:37:08;12.07;;;3.83;;
9789;SDS011;4934;50.852;8.098;2023-04-25T07:39:34;10.98;;;4.15;;
9789;SDS011;4934;50.852;8.098;2023-04-25T07:42:00;16.70;;;4.72;;
9789;SDS011;4934;50.852;8.098;2023-04-25T07:44:27;16.95;;;5.30;;
9789;SDS011;4934;50.852;8.098;2023-04-25T07:46:52;21.48;;;4.65;;
9789;SDS011;4934;50.852;8.098;2023-04-25T07:49:18;11.32;;;4.72;;
9789;SDS011;4934;50.852;8.098;2023-04-25T07:51:44;15.80;;;4.70;;
9789;SDS011;4934;50.852;8.098;2023-04-25T07:54:12;14.63;;;4.72;;
9789;SDS011;4934;50.852;8.098;2023-04-25T07:56:39;17.65;;;4.57;;
9789;SDS011;4934;50.852;8.098;2023-04-25T07:59:05;17.73;;;4.97;;
9789;SDS011;4934;50.852;8.098;2023-04-25T08:01:31;11.82;;;5.03;;
9789;SDS011;4934;50.852;8.098;2023-04-25T08:03:56;17.83;;;5.45;;
9789;SDS011;4934;50.852;8.098;2023-04-25T08:06:22;16.73;;;4.88;;
9789;SDS011;4934;50.852;8.098;2023-04-25T08:08:47;16.77;;;4.63;;
9789;SDS011;4934;50.852;8.098;2023-04-25T08:11:13;18.20;;;4.30;;
9789;SDS011;4934;50.852;8.098;2023-04-25T08:13:39;16.25;;;5.13;;
9789;SDS011;4934;50.852;8.098;2023-04-25T08:16:04;15.85;;;4.20;;
9789;SDS011;4934;50.852;8.098;2023-04-25T08:18:30;15.02;;;4.57;;
9789;SDS011;4934;50.852;8.098;2023-04-25T08:20:55;18.02;;;4.78;;
9789;SDS011;4934;50.852;8.098;2023-04-25T08:23:21;16.38;;;4.05;;
9789;SDS011;4934;50.852;8.098;2023-04-25T08:25:47;13.05;;;3.90;;
9789;SDS011;4934;50.852;8.098;2023-04-25T08:28:13;13.45;;;3.33;;
9789;SDS011;4934;50.852;8.098;2023-04-25T08:30:39;14.88;;;3.45;;
9789;SDS011;4934;50.852;8.098;2023-04-25T08:33:05;12.82;;;3.45;;
9789;SDS011;4934;50.852;8.098;2023-04-25T08:35:30;12.52;;;3.33;;
9789;SDS011;4934;50.852;8.098;2023-04-25T08:37:58;12.93;;;3.20;;
9789;SDS011;4934;50.852;8.098;2023-04-25T08:40:23;12.77;;;3.05;;
9789;SDS011;4934;50.852;8.098;2023-04-25T08:42:55;14.98;;;5.47;;
9789;SDS011;4934;50.852;8.098;2023-04-25T08:45:23;17.63;;;6.45;;
9789;SDS011;4934;50.852;8.098;2023-04-25T08:47:51;15.52;;;3.72;;
9789;SDS011;4934;50.852;8.098;2023-04-25T08:50:18;15.25;;;3.97;;
9789;SDS011;4934;50.852;8.098;2023-04-25T08:52:46;13.20;;;3.50;;
9789;SDS011;4934;50.852;8.098;2023-04-25T08:55:13;9.30;;;2.85;;
9789;SDS011;4934;50.852;8.098;2023-04-25T08:57:40;20.50;;;4.32;;
9789;SDS011;4934;50.852;8.098;2023-04-25T09:00:10;17.42;;;3.15;;
9789;SDS011;4934;50.852;8.098;2023-04-25T09:02:38;18.92;;;3.72;;
9789;SDS011;4934;50.852;8.098;2023-04-25T09:05:04;11.90;;;3.25;;
9789;SDS011;4934;50.852;8.098;2023-04-25T09:07:31;14.38;;;2.72;;
9789;SDS011;4934;50.852;8.098;2023-04-25T09:09:57;15.90;;;3.05;;
9789;SDS011;4934;50.852;8.098;2023-04-25T09:15:04;8.55;;;3.15;;
9789;SDS011;4934;50.852;8.098;2023-04-25T09:17:30;9.38;;;2.83;;
9789;SDS011;4934;50.852;8.098;2023-04-25T09:20:04;10.32;;;3.42;;
9789;SDS011;4934;50.852;8.098;2023-04-25T09:22:34;17.48;;;4.32;;
9789;SDS011;4934;50.852;8.098;2023-04-25T09:25:08;15.10;;;3.20;;
9789;SDS011;4934;50.852;8.098;2023-04-25T09:27:48;14.65;;;5.28;;
9789;SDS011;4934;50.852;8.098;2023-04-25T09:30:16;17.63;;;3.50;;
9789;SDS011;4934;50.852;8.098;2023-04-25T09:32:42;7.05;;;3.15;;
9789;SDS011;4934;50.852;8.098;2023-04-25T09:35:08;13.55;;;3.60;;
9789;SDS011;4934;50.852;8.098;2023-04-25T09:37:34;10.75;;;3.50;;
9789;SDS011;4934;50.852;8.098;2023-04-25T09:40:00;14.43;;;3.80;;
9789;SDS011;4934;50.852;8.098;2023-04-25T09:42:31;11.15;;;3.55;;
9789;SDS011;4934;50.852;8.098;2023-04-25T09:44:59;13.52;;;3.60;;
9789;SDS011;4934;50.852;8.098;2023-04-25T09:47:27;6.95;;;3.28;;
9789;SDS011;4934;50.852;8.098;2023-04-25T09:49:53;11.27;;;3.45;;
9789;SDS011;4934;50.852;8.098;2023-04-25T09:52:22;10.60;;;5.88;;
9789;SDS011;4934;50.852;8.098;2023-04-25T09:54:49;14.50;;;3.75;;
9789;SDS011;4934;50.852;8.098;2023-04-25T09:57:16;14.90;;;3.35;;
9789;SDS011;4934;50.852;8.098;2023-04-25T09:59:43;8.27;;;3.33;;
9789;SDS011;4934;50.852;8.098;2023-04-25T10:02:16;8.65;;;3.63;;
9789;SDS011;4934;50.852;8.098;2023-04-25T10:04:44;15.75;;;3.95;;
9789;SDS011;4934;50.852;8.098;2023-04-25T10:07:13;13.52;;;4.10;;
9789;SDS011;4934;50.852;8.098;2023-04-25T10:09:40;9.48;;;4.15;;
9789;SDS011;4934;50.852;8.098;2023-04-25T10:12:07;9.05;;;3.88;;
9789;SDS011;4934;50.852;8.098;2023-04-25T10:14:33;12.45;;;4.00;;
9789;SDS011;4934;50.852;8.098;2023-04-25T10:16:59;10.85;;;3.75;;
9789;SDS011;4934;50.852;8.098;2023-04-25T10:19:26;12.73;;;4.13;;
9789;SDS011;4934;50.852;8.098;2023-04-25T10:21:54;12.73;;;4.55;;
9789;SDS011;4934;50.852;8.098;2023-04-25T10:24:36;11.75;;;3.80;;
9789;SDS011;4934;50.852;8.098;2023-04-25T10:27:04;10.48;;;4.03;;
9789;SDS011;4934;50.852;8.098;2023-04-25T10:29:30;7.38;;;3.70;;
9789;SDS011;4934;50.852;8.098;2023-04-25T10:31:56;6.97;;;3.92;;
9789;SDS011;4934;50.852;8.098;2023-04-25T10:34:38;11.15;;;4.18;;
9789;SDS011;4934;50.852;8.098;2023-04-25T10:37:08;14.25;;;4.47;;
9789;SDS011;4934;50.852;8.098;2023-04-25T10:39:35;10.15;;;4.00;;
9789;SDS011;4934;50.852;8.098;2023-04-25T10:42:04;5.80;;;3.55;;
9789;SDS011;4934;50.852;8.098;2023-04-25T10:44:30;12.60;;;4.47;;
9789;SDS011;4934;50.852;8.098;2023-04-25T10:46:56;13.60;;;4.50;;
9789;SDS011;4934;50.852;8.098;2023-04-25T10:49:30;14.90;;;4.13;;
9789;SDS011;4934;50.852;8.098;2023-04-25T10:52:13;6.18;;;3.60;;
9789;SDS011;4934;50.852;8.098;2023-04-25T10:54:42;9.25;;;3.50;;
9789;SDS011;4934;50.852;8.098;2023-04-25T10:57:25;16.05;;;3.80;;
9789;SDS011;4934;50.852;8.098;2023-04-25T10:59:58;7.97;;;3.00;;
9789;SDS011;4934;50.852;8.098;2023-04-25T11:02:27;11.25;;;2.92;;
9789;SDS011;4934;50.852;8.098;2023-04-25T11:04:54;10.65;;;3.78;;
9789;SDS011;4934;50.852;8.098;2023-04-25T11:07:23;5.57;;;2.97;;
9789;SDS011;4934;50.852;8.098;2023-04-25T11:09:57;4.93;;;2.72;;
9789;SDS011;4934;50.852;8.098;2023-04-25T11:12:26;20.55;;;3.65;;
9789;SDS011;4934;50.852;8.098;2023-04-25T11:14:57;6.78;;;3.63;;
9789;SDS011;4934;50.852;8.098;2023-04-25T11:17:28;11.13;;;3.15;;
9789;SDS011;4934;50.852;8.098;2023-04-25T11:19:54;10.13;;;3.67;;
9789;SDS011;4934;50.852;8.098;2023-04-25T11:22:21;11.25;;;3.10;;
9789;SDS011;4934;50.852;8.098;2023-04-25T11:24:47;10.07;;;2.90;;
9789;SDS011;4934;50.852;8.098;2023-04-25T11:27:13;13.02;;;3.30;;
9789;SDS011;4934;50.852;8.098;2023-04-25T11:29:39;11.40;;;3.17;;
9789;SDS011;4934;50.852;8.098;2023-04-25T11:32:06;9.73;;;2.70;;
9789;SDS011;4934;50.852;8.098;2023-04-25T11:34:32;13.75;;;3.10;;
9789;SDS011;4934;50.852;8.098;2023-04-25T11:36:58;9.48;;;2.53;;
9789;SDS011;4934;50.852;8.098;2023-04-25T11:39:25;13.98;;;3.70;;
9789;SDS011;4934;50.852;8.098;2023-04-25T11:41:51;12.82;;;2.70;;
9789;SDS011;4934;50.852;8.098;2023-04-25T11:44:18;8.13;;;2.58;;
9789;SDS011;4934;50.852;8.098;2023-04-25T11:46:44;12.50;;;2.33;;
9789;SDS011;4934;50.852;8.098;2023-04-25T11:49:10;12.60;;;2.83;;
9789;SDS011;4934;50.852;8.098;2023-04-25T11:51:43;9.13;;;2.63;;
9789;SDS011;4934;50.852;8.098;2023-04-25T11:54:11;7.80;;;2.60;;
9789;SDS011;4934;50.852;8.098;2023-04-25T11:56:40;12.85;;;3.70;;
9789;SDS011;4934;50.852;8.098;2023-04-25T11:59:07;12.93;;;3.30;;
9789;SDS011;4934;50.852;8.098;2023-04-25T12:01:33;9.35;;;2.97;;
9789;SDS011;4934;50.852;8.098;2023-04-25T12:04:10;10.20;;;2.53;;
9789;SDS011;4934;50.852;8.098;2023-04-25T12:06:37;9.95;;;2.30;;
9789;SDS011;4934;50.852;8.098;2023-04-25T12:09:07;8.25;;;1.98;;
9789;SDS011;4934;50.852;8.098;2023-04-25T12:11:46;5.63;;;1.98;;
9789;SDS011;4934;50.852;8.098;2023-04-25T12:14:21;10.07;;;2.25;;
9789;SDS011;4934;50.852;8.098;2023-04-25T12:16:49;10.13;;;2.15;;
9789;SDS011;4934;50.852;8.098;2023-04-25T12:19:16;9.10;;;2.65;;
9789;SDS011;4934;50.852;8.098;2023-04-25T12:21:43;7.60;;;2.28;;
9789;SDS011;4934;50.852;8.098;2023-04-25T12:24:10;13.05;;;2.67;;
9789;SDS011;4934;50.852;8.098;2023-04-25T12:26:52;7.22;;;1.92;;
9789;SDS011;4934;50.852;8.098;2023-04-25T12:29:24;7.03;;;2.23;;
9789;SDS011;4934;50.852;8.098;2023-04-25T12:31:51;9.15;;;2.30;;
9789;SDS011;4934;50.852;8.098;2023-04-25T12:34:18;9.38;;;2.10;;
9789;SDS011;4934;50.852;8.098;2023-04-25T12:36:45;6.63;;;1.83;;
9789;SDS011;4934;50.852;8.098;2023-04-25T12:39:14;6.85;;;1.98;;
9789;SDS011;4934;50.852;8.098;2023-04-25T12:41:44;3.88;;;1.92;;
9789;SDS011;4934;50.852;8.098;2023-04-25T12:44:11;4.55;;;2.00;;
9789;SDS011;4934;50.852;8.098;2023-04-25T12:46:37;9.80;;;2.58;;
9789;SDS011;4934;50.852;8.098;2023-04-25T12:49:03;6.10;;;2.00;;
9789;SDS011;4934;50.852;8.098;2023-04-25T12:51:30;8.75;;;1.92;;
9789;SDS011;4934;50.852;8.098;2023-04-25T12:53:57;9.27;;;1.50;;
9789;SDS011;4934;50.852;8.098;2023-04-25T12:56:24;5.60;;;1.40;;
9789;SDS011;4934;50.852;8.098;2023-04-25T12:58:50;11.13;;;2.00;;
9789;SDS011;4934;50.852;8.098;2023-04-25T13:01:16;3.75;;;1.98;;
9789;SDS011;4934;50.852;8.098;2023-04-25T13:03:41;6.60;;;1.95;;
9789;SDS011;4934;50.852;8.098;2023-04-25T13:06:07;6.35;;;2.00;;
9789;SDS011;4934;50.852;8.098;2023-04-25T13:08:33;5.20;;;1.85;;
9789;SDS011;4934;50.852;8.098;2023-04-25T13:10:59;4.30;;;2.60;;
9789;SDS011;4934;50.852;8.098;2023-04-25T13:13:25;6.40;;;1.77;;
9789;SDS011;4934;50.852;8.098;2023-04-25T13:15:52;6.50;;;2.10;;
9789;SDS011;4934;50.852;8.098;2023-04-25T13:18:18;8.30;;;1.77;;
9789;SDS011;4934;50.852;8.098;2023-04-25T13:20:44;3.83;;;1.55;;
9789;SDS011;4934;50.852;8.098;2023-04-25T13:23:11;4.93;;;1.60;;
9789;SDS011;4934;50.852;8.098;2023-04-25T13:25:36;9.20;;;1.90;;
9789;SDS011;4934;50.852;8.098;2023-04-25T13:28:02;7.88;;;1.88;;
9789;SDS011;4934;50.852;8.098;2023-04-25T13:30:28;3.97;;;1.70;;
9789;SDS011;4934;50.852;8.098;2023-04-25T13:32:54;10.00;;;2.45;;
9789;SDS011;4934;50.852;8.098;2023-04-25T13:35:21;7.10;;;2.70;;
9789;SDS011;4934;50.852;8.098;2023-04-25T13:37:47;5.68;;;1.63;;
9789;SDS011;4934;50.852;8.098;2023-04-25T13:40:13;5.93;;;1.52;;
9789;SDS011;4934;50.852;8.098;2023-04-25T13:42:38;8.63;;;1.75;;
9789;SDS011;4934;50.852;8.098;2023-04-25T13:45:05;11.35;;;2.30;;
9789;SDS011;4934;50.852;8.098;2023-04-25T13:47:31;5.05;;;2.33;;
9789;SDS011;4934;50.852;8.098;2023-04-25T13:49:57;4.25;;;1.52;;
9789;SDS011;4934;50.852;8.098;2023-04-25T13:52:23;5.95;;;2.05;;
9789;SDS011;4934;50.852;8.098;2023-04-25T13:54:52;7.90;;;2.03;;
9789;SDS011;4934;50.852;8.098;2023-04-25T13:57:18;13.32;;;2.20;;
9789;SDS011;4934;50.852;8.098;2023-04-25T13:59:44;5.75;;;1.73;;
9789;SDS011;4934;50.852;8.098;2023-04-25T14:02:09;3.95;;;1.98;;
9789;SDS011;4934;50.852;8.098;2023-04-25T14:04:35;7.82;;;2.53;;
9789;SDS011;4934;50.852;8.098;2023-04-25T14:07:00;10.15;;;2.05;;
9789;SDS011;4934;50.852;8.098;2023-04-25T14:09:27;6.97;;;2.30;;
9789;SDS011;4934;50.852;8.098;2023-04-25T14:11:54;7.07;;;2.65;;
9789;SDS011;4934;50.852;8.098;2023-04-25T14:14:20;7.55;;;1.90;;
9789;SDS011;4934;50.852;8.098;2023-04-25T14:16:47;9.20;;;1.88;;
9789;SDS011;4934;50.852;8.098;2023-04-25T14:19:16;7.32;;;2.00;;
9789;SDS011;4934;50.852;8.098;2023-04-25T14:21:42;6.75;;;2.50;;
9789;SDS011;4934;50.852;8.098;2023-04-25T14:24:08;8.13;;;2.25;;
9789;SDS011;4934;50.852;8.098;2023-04-25T14:26:36;9.10;;;2.90;;
9789;SDS011;4934;50.852;8.098;2023-04-25T14:29:02;5.45;;;2.10;;
9789;SDS011;4934;50.852;8.098;2023-04-25T14:31:29;7.57;;;2.25;;
9789;SDS011;4934;50.852;8.098;2023-04-25T14:33:55;6.65;;;2.47;;
9789;SDS011;4934;50.852;8.098;2023-04-25T14:36:20;5.05;;;2.13;;
9789;SDS011;4934;50.852;8.098;2023-04-25T14:38:46;3.08;;;2.15;;
9789;SDS011;4934;50.852;8.098;2023-04-25T14:41:12;11.13;;;2.15;;
9789;SDS011;4934;50.852;8.098;2023-04-25T14:43:37;10.20;;;3.78;;
9789;SDS011;4934;50.852;8.098;2023-04-25T14:46:05;6.00;;;2.72;;
9789;SDS011;4934;50.852;8.098;2023-04-25T14:48:31;5.38;;;2.05;;
9789;SDS011;4934;50.852;8.098;2023-04-25T14:50:57;8.95;;;2.08;;
9789;SDS011;4934;50.852;8.098;2023-04-25T14:53:23;6.70;;;1.90;;
9789;SDS011;4934;50.852;8.098;2023-04-25T14:55:49;4.80;;;1.73;;
9789;SDS011;4934;50.852;8.098;2023-04-25T14:58:14;5.60;;;2.50;;
9789;SDS011;4934;50.852;8.098;2023-04-25T15:00:40;3.90;;;2.08;;
9789;SDS011;4934;50.852;8.098;2023-04-25T15:03:06;8.35;;;2.70;;
9789;SDS011;4934;50.852;8.098;2023-04-25T15:05:33;6.43;;;2.20;;